createdAt,value
2019-04-16T00:00:56.882Z,67.95
2019-04-16T00:01:56.847Z,68.15
2019-04-16T00:02:56.831Z,67.98
2019-04-16T00:03:56.823Z,67.15
2019-04-16T00:04:57.601Z,67.67
2019-04-16T00:05:58.926Z,67.64
2019-04-16T00:06:56.795Z,68.19
2019-04-16T00:07:56.784Z,68.19
2019-04-16T00:08:58.225Z,68.40
2019-04-16T00:09:56.759Z,68.70
2019-04-16T00:10:56.748Z,68.40
2019-04-16T00:11:56.749Z,68.80
2019-04-16T00:12:56.733Z,68.29
2019-04-16T00:13:56.858Z,68.70
2019-04-16T00:14:56.701Z,69.01
2019-04-16T00:15:56.689Z,68.91
2019-04-16T00:16:56.679Z,68.80
2019-04-16T00:17:56.681Z,69.12
2019-04-16T00:19:00.927Z,68.94
2019-04-16T00:19:57.643Z,69.46
2019-04-16T00:20:56.649Z,69.15
2019-04-16T00:21:56.629Z,69.25
2019-04-16T00:22:56.627Z,69.04
2019-04-16T00:23:56.607Z,69.35
2019-04-16T00:24:56.591Z,68.94
2019-04-16T00:25:56.764Z,69.04
2019-04-16T00:26:59.341Z,68.94
2019-04-16T00:27:59.597Z,69.15
2019-04-16T00:28:56.616Z,69.04
2019-04-16T00:29:56.583Z,69.04
2019-04-16T00:30:56.760Z,68.94
2019-04-16T00:31:56.651Z,69.15
2019-04-16T00:32:56.503Z,68.94
2019-04-16T00:33:56.507Z,69.15
2019-04-16T00:34:56.487Z,69.70
2019-04-16T00:35:56.485Z,70.32
2019-04-16T00:36:56.459Z,70.08
2019-04-16T00:37:56.451Z,70.21
2019-04-16T00:38:56.445Z,70.25
2019-04-16T00:39:56.974Z,70.42
2019-04-16T00:41:00.747Z,70.01
2019-04-16T00:41:57.454Z,69.90
2019-04-16T00:42:56.401Z,69.90
2019-04-16T00:43:56.394Z,70.01
2019-04-16T00:44:56.379Z,70.63
2019-04-16T00:45:56.367Z,70.53
2019-04-16T00:46:56.419Z,70.94
2019-04-16T00:47:56.345Z,70.53
2019-04-16T00:48:56.335Z,70.42
2019-04-16T00:49:58.855Z,70.32
2019-04-16T00:50:56.309Z,70.32
2019-04-16T00:51:56.306Z,70.84
2019-04-16T00:52:56.289Z,70.32
2019-04-16T00:53:56.278Z,69.90
2019-04-16T00:54:56.265Z,69.77
2019-04-16T00:55:56.262Z,69.49
2019-04-16T00:56:56.247Z,69.49
2019-04-16T00:57:56.238Z,69.39
2019-04-16T00:58:56.227Z,69.70
2019-04-16T00:59:56.766Z,69.49
2019-04-16T01:00:56.211Z,69.70
2019-04-16T01:01:56.325Z,70.73
2019-04-16T01:02:56.436Z,70.53
2019-04-16T01:03:56.384Z,70.46
2019-04-16T01:04:56.312Z,70.36
2019-04-16T01:05:56.258Z,70.67
2019-04-16T01:06:56.466Z,70.36
2019-04-16T01:07:56.475Z,70.76
2019-04-16T01:08:56.127Z,71.18
2019-04-16T01:09:56.113Z,70.21
2019-04-16T01:10:56.105Z,70.42
2019-04-16T01:11:56.089Z,70.11
2019-04-16T01:12:56.092Z,70.53
2019-04-16T01:13:56.316Z,70.11
2019-04-16T01:14:58.918Z,69.90
2019-04-16T01:15:56.053Z,69.60
2019-04-16T01:16:56.033Z,69.46
2019-04-16T01:17:56.027Z,69.35
2019-04-16T01:18:56.011Z,69.04
2019-04-16T01:19:56.002Z,69.49
2019-04-16T01:20:55.993Z,69.18
2019-04-16T01:21:55.992Z,69.46
2019-04-16T01:22:55.971Z,69.15
2019-04-16T01:23:55.962Z,69.15
2019-04-16T01:24:55.948Z,69.25
2019-04-16T01:25:56.242Z,68.94
2019-04-16T01:26:58.266Z,69.18
2019-04-16T01:27:59.873Z,69.15
2019-04-16T01:28:56.905Z,69.08
2019-04-16T01:29:55.891Z,69.04
2019-04-16T01:30:55.893Z,69.15
2019-04-16T01:31:55.871Z,69.08
2019-04-16T01:32:55.864Z,69.18
2019-04-16T01:33:55.855Z,69.29
2019-04-16T01:34:55.842Z,69.49
2019-04-16T01:35:55.833Z,69.08
2019-04-16T01:36:55.822Z,69.29
2019-04-16T01:37:56.793Z,69.18
2019-04-16T01:39:10.988Z,69.29
2019-04-16T01:39:56.789Z,68.94
2019-04-16T01:40:55.775Z,69.04
2019-04-16T01:41:55.765Z,68.84
2019-04-16T01:42:55.748Z,69.15
2019-04-16T01:43:57.195Z,68.94
2019-04-16T01:44:59.377Z,68.87
2019-04-16T01:46:00.851Z,68.98
2019-04-16T01:46:56.709Z,69.29
2019-04-16T01:47:55.697Z,69.08
2019-04-16T01:48:55.685Z,69.18
2019-04-16T01:49:55.673Z,69.49
2019-04-16T01:50:55.675Z,69.42
2019-04-16T01:51:55.649Z,69.01
2019-04-16T01:52:55.643Z,68.98
2019-04-16T01:53:55.627Z,69.29
2019-04-16T01:54:55.706Z,69.29
2019-04-16T01:55:56.953Z,69.39
2019-04-16T01:56:59.459Z,69.29
2019-04-16T01:57:55.593Z,69.11
2019-04-16T01:58:55.580Z,69.11
2019-04-16T01:59:55.565Z,69.11
2019-04-16T02:00:55.558Z,69.08
2019-04-16T02:01:55.559Z,69.42
2019-04-16T02:02:55.553Z,69.11
2019-04-16T02:03:55.527Z,69.42
2019-04-16T02:04:55.521Z,69.01
2019-04-16T02:05:55.613Z,69.01
2019-04-16T02:06:57.242Z,69.32
2019-04-16T02:07:56.325Z,69.63
2019-04-16T02:08:55.483Z,69.11
2019-04-16T02:09:55.459Z,68.90
2019-04-16T02:10:55.444Z,69.11
2019-04-16T02:11:55.441Z,69.11
2019-04-16T02:12:55.435Z,68.80
2019-04-16T02:13:55.423Z,68.70
2019-04-16T02:14:55.415Z,68.70
2019-04-16T02:15:55.399Z,68.70
2019-04-16T02:16:55.996Z,67.45
2019-04-16T02:17:58.688Z,68.38
2019-04-16T02:18:55.361Z,68.80
2019-04-16T02:19:55.362Z,67.97
2019-04-16T02:20:55.339Z,68.28
2019-04-16T02:21:55.332Z,67.97
2019-04-16T02:22:55.321Z,68.28
2019-04-16T02:23:55.307Z,68.07
2019-04-16T02:24:55.297Z,67.86
2019-04-16T02:25:55.297Z,67.66
2019-04-16T02:26:55.535Z,67.45
2019-04-16T02:27:57.092Z,67.55
2019-04-16T02:28:56.478Z,67.45
2019-04-16T02:29:55.241Z,66.93
2019-04-16T02:30:55.235Z,66.83
2019-04-16T02:31:55.230Z,66.93
2019-04-16T02:32:55.238Z,66.11
2019-04-16T02:33:55.205Z,65.80
2019-04-16T02:34:55.207Z,66.08
2019-04-16T02:35:55.179Z,66.08
2019-04-16T02:37:00.553Z,65.77
2019-04-16T02:37:56.159Z,65.80
2019-04-16T02:38:55.162Z,65.77
2019-04-16T02:39:55.138Z,66.18
2019-04-16T02:40:55.124Z,66.00
2019-04-16T02:41:58.059Z,66.00
2019-04-16T02:42:55.105Z,65.80
2019-04-16T02:43:55.097Z,65.80
2019-04-16T02:44:55.084Z,65.80
2019-04-16T02:45:58.063Z,66.21
2019-04-16T02:46:55.068Z,65.80
2019-04-16T02:47:55.050Z,66.21
2019-04-16T02:48:55.045Z,66.00
2019-04-16T02:49:56.750Z,65.90
2019-04-16T02:50:55.019Z,65.80
2019-04-16T02:51:55.007Z,65.69
2019-04-16T02:52:55.001Z,65.93
2019-04-16T02:53:58.901Z,66.00
2019-04-16T02:54:54.984Z,66.41
2019-04-16T02:55:54.960Z,65.69
2019-04-16T02:56:54.957Z,65.80
2019-04-16T02:57:59.481Z,65.90
2019-04-16T02:58:55.930Z,65.83
2019-04-16T02:59:54.917Z,65.83
2019-04-16T03:00:54.905Z,66.35
2019-04-16T03:01:54.901Z,66.03
2019-04-16T03:02:54.893Z,65.83
2019-04-16T03:03:56.244Z,65.93
2019-04-16T03:04:58.182Z,65.72
2019-04-16T03:05:54.858Z,65.83
2019-04-16T03:06:54.858Z,65.72
2019-04-16T03:07:54.834Z,65.72
2019-04-16T03:08:54.824Z,65.93
2019-04-16T03:10:01.157Z,66.35
2019-04-16T03:10:55.811Z,65.93
2019-04-16T03:11:54.809Z,66.24
2019-04-16T03:12:54.789Z,65.93
2019-04-16T03:13:58.334Z,65.86
2019-04-16T03:14:54.760Z,66.24
2019-04-16T03:15:54.759Z,66.17
2019-04-16T03:16:54.742Z,66.03
2019-04-16T03:17:54.733Z,65.86
2019-04-16T03:18:54.723Z,65.93
2019-04-16T03:19:54.729Z,65.93
2019-04-16T03:20:55.713Z,65.83
2019-04-16T03:21:55.771Z,65.93
2019-04-16T03:22:54.681Z,65.93
2019-04-16T03:23:54.671Z,65.83
2019-04-16T03:24:54.659Z,66.47
2019-04-16T03:25:54.645Z,65.83
2019-04-16T03:26:54.646Z,65.75
2019-04-16T03:27:55.117Z,66.38
2019-04-16T03:28:55.699Z,66.24
2019-04-16T03:29:54.601Z,65.72
2019-04-16T03:30:54.604Z,65.72
2019-04-16T03:31:58.214Z,65.75
2019-04-16T03:32:54.574Z,65.86
2019-04-16T03:33:54.570Z,65.86
2019-04-16T03:34:54.547Z,65.96
2019-04-16T03:35:57.574Z,65.96
2019-04-16T03:36:54.545Z,66.82
2019-04-16T03:37:54.533Z,66.93
2019-04-16T03:38:54.507Z,66.93
2019-04-16T03:39:54.499Z,67.10
2019-04-16T03:40:56.077Z,67.44
2019-04-16T03:41:56.182Z,67.44
2019-04-16T03:42:58.923Z,67.55
2019-04-16T03:43:55.455Z,67.96
2019-04-16T03:44:54.503Z,67.65
2019-04-16T03:45:54.447Z,67.24
2019-04-16T03:46:54.436Z,67.55
2019-04-16T03:47:54.424Z,67.65
2019-04-16T03:48:56.099Z,67.86
2019-04-16T03:49:56.412Z,67.76
2019-04-16T03:50:54.382Z,67.86
2019-04-16T03:51:54.373Z,67.76
2019-04-16T03:52:54.363Z,68.27
2019-04-16T03:53:54.368Z,68.38
2019-04-16T03:54:54.731Z,68.07
2019-04-16T03:55:54.590Z,68.38
2019-04-16T03:56:54.316Z,68.30
2019-04-16T03:57:54.325Z,68.20
2019-04-16T03:58:54.303Z,68.20
2019-04-16T03:59:54.288Z,68.30
2019-04-16T04:00:54.281Z,68.30
2019-04-16T04:01:54.276Z,68.30
2019-04-16T04:02:55.154Z,68.48
2019-04-16T04:03:54.519Z,67.99
2019-04-16T04:04:54.235Z,68.38
2019-04-16T04:05:54.237Z,68.07
2019-04-16T04:06:54.221Z,68.41
2019-04-16T04:07:55.449Z,68.41
2019-04-16T04:08:54.191Z,68.10
2019-04-16T04:09:55.175Z,67.99
2019-04-16T04:10:54.173Z,68.62
2019-04-16T04:11:54.172Z,67.89
2019-04-16T04:12:54.151Z,67.79
2019-04-16T04:13:54.141Z,67.68
2019-04-16T04:14:55.092Z,67.89
2019-04-16T04:15:55.215Z,68.30
2019-04-16T04:16:54.111Z,68.41
2019-04-16T04:17:54.111Z,68.20
2019-04-16T04:18:54.087Z,68.51
2019-04-16T04:19:54.106Z,68.30
2019-04-16T04:20:54.069Z,68.30
2019-04-16T04:21:54.484Z,68.30
2019-04-16T04:22:56.772Z,68.17
2019-04-16T04:23:54.041Z,67.99
2019-04-16T04:24:54.035Z,68.41
2019-04-16T04:25:54.015Z,68.30
2019-04-16T04:26:54.003Z,68.41
2019-04-16T04:27:53.994Z,68.20
2019-04-16T04:28:53.987Z,67.99
2019-04-16T04:29:56.527Z,68.30
2019-04-16T04:30:53.970Z,67.58
2019-04-16T04:31:53.954Z,68.41
2019-04-16T04:32:53.950Z,67.89
2019-04-16T04:33:53.939Z,68.41
2019-04-16T04:34:53.931Z,68.30
2019-04-16T04:35:53.922Z,68.41
2019-04-16T04:36:58.869Z,68.30
2019-04-16T04:37:54.889Z,67.89
2019-04-16T04:38:53.877Z,67.92
2019-04-16T04:39:53.865Z,67.99
2019-04-16T04:40:53.865Z,67.58
2019-04-16T04:41:56.469Z,68.13
2019-04-16T04:42:53.842Z,68.62
2019-04-16T04:43:53.826Z,68.20
2019-04-16T04:44:53.833Z,68.10
2019-04-16T04:45:53.803Z,68.20
2019-04-16T04:46:53.797Z,67.37
2019-04-16T04:47:53.780Z,68.30
2019-04-16T04:48:55.741Z,68.41
2019-04-16T04:49:53.761Z,68.20
2019-04-16T04:50:53.746Z,68.10
2019-04-16T04:51:53.737Z,67.99
2019-04-16T04:52:53.734Z,68.41
2019-04-16T04:53:53.715Z,67.89
2019-04-16T04:54:54.122Z,67.89
2019-04-16T04:55:54.400Z,67.96
2019-04-16T04:56:56.434Z,67.86
2019-04-16T04:57:54.677Z,67.55
2019-04-16T04:58:53.666Z,67.65
2019-04-16T04:59:53.655Z,67.34
2019-04-16T05:00:53.650Z,67.65
2019-04-16T05:01:53.636Z,67.03
2019-04-16T05:02:53.629Z,66.68
2019-04-16T05:03:53.629Z,66.06
2019-04-16T05:04:53.605Z,65.96
2019-04-16T05:05:56.066Z,66.17
2019-04-16T05:06:54.438Z,66.58
2019-04-16T05:07:53.571Z,65.96
2019-04-16T05:08:53.561Z,65.72
2019-04-16T05:09:53.554Z,65.52
2019-04-16T05:10:59.772Z,65.62
2019-04-16T05:11:54.526Z,65.52
2019-04-16T05:12:53.813Z,65.41
2019-04-16T05:13:56.478Z,65.31
2019-04-16T05:14:57.371Z,65.93
2019-04-16T05:15:53.487Z,65.93
2019-04-16T05:16:53.491Z,65.20
2019-04-16T05:17:53.460Z,65.31
2019-04-16T05:18:53.459Z,65.62
2019-04-16T05:19:53.445Z,64.76
2019-04-16T05:20:53.440Z,64.79
2019-04-16T05:21:53.425Z,64.45
2019-04-16T05:22:54.503Z,64.14
2019-04-16T05:23:56.789Z,64.65
2019-04-16T05:24:53.391Z,64.52
2019-04-16T05:25:53.381Z,64.55
2019-04-16T05:26:56.272Z,64.24
2019-04-16T05:27:53.358Z,64.76
2019-04-16T05:28:53.348Z,63.90
2019-04-16T05:29:53.345Z,64.11
2019-04-16T05:30:53.325Z,64.11
2019-04-16T05:31:54.565Z,63.90
2019-04-16T05:32:53.300Z,63.90
2019-04-16T05:33:53.296Z,63.97
2019-04-16T05:34:53.275Z,63.56
2019-04-16T05:35:53.271Z,63.38
2019-04-16T05:36:53.269Z,63.56
2019-04-16T05:37:53.245Z,63.46
2019-04-16T05:38:55.749Z,63.53
2019-04-16T05:39:53.230Z,63.01
2019-04-16T05:40:53.215Z,64.04
2019-04-16T05:41:53.597Z,64.56
2019-04-16T05:42:58.248Z,63.40
2019-04-16T05:43:54.189Z,62.44
2019-04-16T05:44:53.175Z,62.17
2019-04-16T05:45:53.165Z,58.89
2019-04-16T05:46:53.147Z,56.31
2019-04-16T05:47:53.141Z,53.07
2019-04-16T05:48:54.011Z,52.43
2019-04-16T05:49:54.470Z,51.66
2019-04-16T05:50:53.111Z,50.48
2019-04-16T05:51:53.089Z,50.15
2019-04-16T05:52:53.109Z,49.23
2019-04-16T05:53:53.072Z,48.49
2019-04-16T05:54:53.064Z,47.93
2019-04-16T05:55:53.051Z,46.50
2019-04-16T05:56:55.525Z,46.07
2019-04-16T05:57:57.954Z,45.43
2019-04-16T05:58:54.015Z,45.45
2019-04-16T05:59:53.011Z,45.41
2019-04-16T06:00:53.001Z,45.00
2019-04-16T06:01:52.990Z,44.98
2019-04-16T06:02:52.982Z,43.76
2019-04-16T06:03:53.310Z,43.98
2019-04-16T06:04:55.615Z,44.78
2019-04-16T06:05:52.952Z,42.91
2019-04-16T06:06:52.934Z,43.41
2019-04-16T06:07:52.929Z,43.08
2019-04-16T06:08:56.071Z,41.61
2019-04-16T06:09:52.901Z,40.83
2019-04-16T06:10:52.887Z,42.41
2019-04-16T06:11:52.880Z,43.73
2019-04-16T06:12:52.865Z,42.16
2019-04-16T06:13:52.864Z,41.88
2019-04-16T06:14:54.046Z,42.50
2019-04-16T06:15:53.921Z,42.94
2019-04-16T06:16:53.376Z,42.94
2019-04-16T06:17:52.817Z,42.29
2019-04-16T06:18:52.798Z,42.18
2019-04-16T06:19:52.791Z,43.30
2019-04-16T06:20:53.702Z,42.49
2019-04-16T06:21:56.397Z,42.04
2019-04-16T06:22:52.758Z,41.83
2019-04-16T06:23:52.749Z,42.69
2019-04-16T06:24:52.753Z,42.65
2019-04-16T06:25:52.733Z,41.57
2019-04-16T06:26:52.722Z,41.08
2019-04-16T06:27:52.710Z,40.23
2019-04-16T06:28:56.402Z,38.56
2019-04-16T06:29:53.683Z,39.96
2019-04-16T06:30:52.677Z,39.98
2019-04-16T06:31:52.658Z,41.00
2019-04-16T06:32:52.650Z,41.71
2019-04-16T06:33:52.639Z,41.06
2019-04-16T06:34:52.632Z,40.35
2019-04-16T06:35:52.617Z,40.25
2019-04-16T06:36:52.608Z,40.21
2019-04-16T06:37:52.599Z,38.89
2019-04-16T06:38:55.017Z,39.51
2019-04-16T06:39:52.597Z,39.84
2019-04-16T06:40:52.575Z,40.03
2019-04-16T06:41:52.802Z,39.19
2019-04-16T06:42:54.261Z,38.65
2019-04-16T06:43:52.541Z,38.73
2019-04-16T06:44:52.523Z,39.46
2019-04-16T06:45:52.563Z,37.70
2019-04-16T06:46:52.501Z,37.48
2019-04-16T06:47:52.497Z,36.54
2019-04-16T06:48:52.478Z,35.80
2019-04-16T06:49:52.469Z,37.84
2019-04-16T06:50:52.458Z,37.59
2019-04-16T06:51:52.445Z,36.25
2019-04-16T06:52:52.436Z,35.94
2019-04-16T06:53:53.952Z,36.76
2019-04-16T06:54:52.414Z,36.46
2019-04-16T06:55:52.403Z,37.17
2019-04-16T06:56:52.392Z,34.70
2019-04-16T06:57:52.382Z,35.28
2019-04-16T06:58:57.195Z,34.09
2019-04-16T06:59:53.357Z,35.21
2019-04-16T07:00:52.346Z,35.53
2019-04-16T07:01:52.339Z,36.83
2019-04-16T07:03:02.204Z,37.63
2019-04-16T07:03:58.489Z,37.32
2019-04-16T07:04:53.303Z,37.43
2019-04-16T07:05:52.295Z,38.28
2019-04-16T07:06:52.281Z,39.13
2019-04-16T07:07:52.273Z,39.06
2019-04-16T07:08:52.265Z,40.00
2019-04-16T07:09:56.707Z,40.59
2019-04-16T07:10:53.241Z,41.61
2019-04-16T07:11:54.722Z,41.22
2019-04-16T07:12:52.315Z,41.33
2019-04-16T07:13:52.203Z,41.65
2019-04-16T07:14:52.197Z,41.24
2019-04-16T07:15:53.304Z,42.16
2019-04-16T07:16:52.179Z,41.55
2019-04-16T07:17:52.170Z,41.75
2019-04-16T07:18:52.154Z,41.56
2019-04-16T07:19:52.147Z,42.50
2019-04-16T07:20:52.135Z,42.44
2019-04-16T07:21:52.138Z,44.64
2019-04-16T07:22:52.910Z,45.15
2019-04-16T07:23:56.853Z,44.31
2019-04-16T07:24:53.168Z,44.90
2019-04-16T07:25:52.089Z,45.29
2019-04-16T07:26:55.940Z,44.76
2019-04-16T07:27:53.743Z,43.14
2019-04-16T07:28:58.507Z,42.63
2019-04-16T07:29:53.347Z,43.24
2019-04-16T07:30:52.029Z,44.26
2019-04-16T07:31:53.494Z,43.32
2019-04-16T07:32:52.003Z,43.43
2019-04-16T07:33:52.001Z,43.76
2019-04-16T07:34:51.993Z,43.63
2019-04-16T07:35:51.971Z,43.24
2019-04-16T07:36:51.957Z,43.14
2019-04-16T07:37:51.949Z,43.94
2019-04-16T07:38:51.943Z,43.20
2019-04-16T07:39:51.927Z,42.18
2019-04-16T07:40:51.925Z,42.79
2019-04-16T07:41:51.917Z,42.69
2019-04-16T07:42:52.420Z,41.75
2019-04-16T07:43:53.056Z,42.26
2019-04-16T07:44:54.894Z,41.24
2019-04-16T07:45:51.868Z,41.55
2019-04-16T07:46:51.857Z,42.38
2019-04-16T07:47:52.466Z,42.47
2019-04-16T07:48:54.653Z,42.96
2019-04-16T07:49:51.829Z,41.56
2019-04-16T07:50:53.050Z,41.88
2019-04-16T07:51:51.795Z,42.77
2019-04-16T07:52:51.800Z,42.76
2019-04-16T07:53:51.778Z,42.22
2019-04-16T07:54:51.768Z,41.28
2019-04-16T07:55:51.759Z,40.12
2019-04-16T07:56:51.746Z,39.11
2019-04-16T07:57:51.733Z,40.25
2019-04-16T07:58:51.776Z,39.72
2019-04-16T07:59:51.721Z,38.78
2019-04-16T08:00:51.703Z,38.36
2019-04-16T08:01:51.693Z,38.22
2019-04-16T08:02:53.651Z,37.19
2019-04-16T08:03:51.693Z,36.99
2019-04-16T08:04:51.662Z,36.44
2019-04-16T08:05:51.651Z,36.34
2019-04-16T08:06:51.640Z,34.99
2019-04-16T08:07:52.886Z,34.82
2019-04-16T08:08:53.936Z,35.21
2019-04-16T08:09:52.611Z,35.90
2019-04-16T08:10:51.601Z,37.26
2019-04-16T08:11:51.601Z,36.41
2019-04-16T08:12:51.565Z,36.66
2019-04-16T08:13:51.560Z,35.00
2019-04-16T08:14:51.569Z,35.39
2019-04-16T08:15:51.539Z,34.94
2019-04-16T08:16:51.533Z,34.22
2019-04-16T08:17:51.516Z,32.90
2019-04-16T08:18:51.504Z,31.99
2019-04-16T08:19:51.500Z,33.83
2019-04-16T08:21:01.303Z,32.79
2019-04-16T08:21:52.499Z,32.70
2019-04-16T08:22:51.467Z,32.02
2019-04-16T08:23:53.006Z,35.24
2019-04-16T08:24:51.441Z,35.64
2019-04-16T08:26:00.266Z,35.24
2019-04-16T08:26:52.423Z,36.27
2019-04-16T08:27:53.984Z,36.16
2019-04-16T08:28:51.404Z,34.72
2019-04-16T08:29:51.391Z,34.97
2019-04-16T08:30:51.379Z,32.45
2019-04-16T08:31:51.366Z,33.37
2019-04-16T08:32:51.369Z,33.70
2019-04-16T08:33:51.349Z,34.36
2019-04-16T08:34:51.344Z,36.14
2019-04-16T08:35:51.321Z,36.32
2019-04-16T08:36:51.318Z,36.24
2019-04-16T08:37:51.305Z,36.24
2019-04-16T08:38:51.294Z,36.53
2019-04-16T08:39:51.291Z,35.68
2019-04-16T08:40:51.269Z,36.88
2019-04-16T08:41:52.374Z,35.04
2019-04-16T08:42:51.249Z,34.34
2019-04-16T08:43:51.244Z,35.05
2019-04-16T08:44:51.230Z,33.92
2019-04-16T08:45:51.216Z,33.19
2019-04-16T08:46:51.210Z,33.18
2019-04-16T08:47:51.196Z,33.07
2019-04-16T08:48:54.090Z,33.29
2019-04-16T08:49:54.135Z,34.43
2019-04-16T08:50:51.159Z,34.92
2019-04-16T08:51:51.167Z,32.99
2019-04-16T08:52:51.146Z,33.77
2019-04-16T08:53:51.125Z,31.95
2019-04-16T08:54:54.677Z,32.26
2019-04-16T08:55:51.111Z,32.77
2019-04-16T08:56:51.103Z,33.48
2019-04-16T08:57:51.090Z,33.19
2019-04-16T08:58:51.075Z,33.09
2019-04-16T08:59:51.070Z,33.06
2019-04-16T09:00:51.057Z,32.37
2019-04-16T09:01:51.404Z,32.28
2019-04-16T09:02:51.035Z,31.98
2019-04-16T09:03:51.020Z,32.38
2019-04-16T09:04:51.010Z,32.38
2019-04-16T09:05:51.001Z,32.48
2019-04-16T09:06:50.987Z,32.20
2019-04-16T09:07:51.676Z,33.11
2019-04-16T09:08:53.199Z,33.21
2019-04-16T09:09:50.971Z,31.68
2019-04-16T09:10:50.958Z,33.31
2019-04-16T09:11:50.937Z,33.82
2019-04-16T09:13:02.362Z,32.59
2019-04-16T09:13:51.940Z,31.40
2019-04-16T09:14:54.907Z,31.10
2019-04-16T09:15:51.901Z,32.24
2019-04-16T09:16:50.892Z,32.53
2019-04-16T09:17:50.880Z,32.12
2019-04-16T09:18:50.865Z,33.02
2019-04-16T09:19:50.868Z,32.48
2019-04-16T09:20:50.845Z,31.28
2019-04-16T09:21:50.845Z,31.89
2019-04-16T09:22:53.658Z,31.57
2019-04-16T09:23:50.813Z,31.87
2019-04-16T09:24:50.799Z,31.26
2019-04-16T09:25:50.789Z,31.25
2019-04-16T09:26:52.768Z,31.15
2019-04-16T09:27:50.767Z,31.66
2019-04-16T09:28:50.754Z,30.48
2019-04-16T09:29:50.745Z,31.28
2019-04-16T09:30:50.758Z,31.06
2019-04-16T09:31:55.082Z,30.15
2019-04-16T09:32:51.723Z,29.63
2019-04-16T09:33:50.701Z,29.63
2019-04-16T09:34:50.691Z,29.87
2019-04-16T09:35:50.680Z,29.97
2019-04-16T09:36:50.677Z,30.48
2019-04-16T09:37:50.661Z,28.96
2019-04-16T09:38:50.646Z,28.65
2019-04-16T09:39:50.638Z,30.19
2019-04-16T09:40:50.631Z,30.00
2019-04-16T09:41:50.625Z,29.80
2019-04-16T09:42:50.879Z,29.68
2019-04-16T09:43:53.777Z,30.90
2019-04-16T09:44:51.590Z,29.17
2019-04-16T09:45:50.573Z,28.67
2019-04-16T09:46:52.049Z,29.79
2019-04-16T09:47:50.563Z,29.38
2019-04-16T09:48:50.547Z,29.80
2019-04-16T09:49:50.533Z,29.79
2019-04-16T09:50:50.518Z,30.19
2019-04-16T09:51:51.242Z,30.18
2019-04-16T09:52:52.382Z,30.18
2019-04-16T09:53:50.506Z,29.86
2019-04-16T09:54:50.482Z,29.33
2019-04-16T09:55:51.217Z,29.74
2019-04-16T09:56:50.453Z,29.43
2019-04-16T09:57:50.442Z,29.71
2019-04-16T09:58:50.433Z,28.50
2019-04-16T09:59:50.419Z,28.79
2019-04-16T10:00:50.407Z,28.60
2019-04-16T10:01:50.397Z,28.69
2019-04-16T10:02:50.405Z,30.32
2019-04-16T10:03:53.494Z,31.01
2019-04-16T10:04:50.367Z,28.90
2019-04-16T10:05:50.353Z,29.44
2019-04-16T10:06:50.345Z,29.64
2019-04-16T10:07:50.350Z,28.63
2019-04-16T10:08:50.333Z,28.61
2019-04-16T10:09:51.373Z,28.39
2019-04-16T10:10:50.302Z,30.16
2019-04-16T10:11:50.306Z,29.67
2019-04-16T10:12:50.282Z,30.99
2019-04-16T10:13:50.266Z,30.57
2019-04-16T10:14:50.291Z,30.98
2019-04-16T10:15:50.246Z,31.26
2019-04-16T10:16:50.246Z,29.21
2019-04-16T10:17:50.242Z,30.21
2019-04-16T10:18:50.224Z,29.60
2019-04-16T10:19:50.206Z,29.57
2019-04-16T10:20:50.232Z,29.47
2019-04-16T10:21:53.411Z,28.98
2019-04-16T10:22:50.170Z,27.33
2019-04-16T10:23:50.174Z,25.88
2019-04-16T10:24:50.157Z,24.54
2019-04-16T10:25:50.156Z,25.52
2019-04-16T10:26:50.142Z,24.51
2019-04-16T10:27:50.152Z,24.10
2019-04-16T10:28:50.108Z,24.54
2019-04-16T10:29:50.099Z,25.46
2019-04-16T10:30:50.084Z,24.54
2019-04-16T10:31:50.075Z,24.04
2019-04-16T10:32:50.072Z,25.04
2019-04-16T10:33:50.054Z,24.54
2019-04-16T10:34:50.067Z,24.74
2019-04-16T10:35:50.037Z,23.91
2019-04-16T10:36:50.024Z,24.63
2019-04-16T10:37:50.019Z,24.54
2019-04-16T10:38:50.014Z,24.11
2019-04-16T10:39:49.988Z,23.90
2019-04-16T10:40:50.001Z,23.68
2019-04-16T10:41:49.976Z,23.79
2019-04-16T10:42:49.973Z,23.58
2019-04-16T10:43:50.003Z,23.83
2019-04-16T10:44:50.033Z,24.74
2019-04-16T10:45:49.985Z,24.21
2019-04-16T10:46:50.019Z,23.49
2019-04-16T10:47:49.899Z,23.06
2019-04-16T10:48:49.912Z,24.10
2019-04-16T10:49:49.890Z,25.55
2019-04-16T10:50:49.877Z,23.94
2019-04-16T10:51:49.865Z,24.96
2019-04-16T10:52:54.071Z,25.02
2019-04-16T10:53:50.852Z,24.40
2019-04-16T10:54:49.848Z,24.18
2019-04-16T10:55:49.838Z,24.73
2019-04-16T10:56:49.807Z,24.44
2019-04-16T10:57:49.799Z,24.54
2019-04-16T10:58:49.788Z,25.63
2019-04-16T10:59:49.785Z,24.19
2019-04-16T11:00:49.787Z,24.18
2019-04-16T11:01:49.773Z,23.43
2019-04-16T11:02:49.741Z,22.91
2019-04-16T11:03:49.741Z,23.03
2019-04-16T11:04:49.721Z,23.15
2019-04-16T11:05:49.718Z,24.54
2019-04-16T11:06:49.731Z,25.34
2019-04-16T11:07:49.692Z,24.01
2019-04-16T11:08:49.682Z,25.34
2019-04-16T11:09:49.678Z,24.62
2019-04-16T11:10:49.667Z,23.50
2019-04-16T11:11:49.750Z,24.73
2019-04-16T11:12:49.646Z,24.40
2019-04-16T11:13:59.585Z,23.60
2019-04-16T11:14:50.614Z,23.80
2019-04-16T11:15:49.614Z,23.29
2019-04-16T11:16:49.616Z,23.11
2019-04-16T11:17:49.603Z,23.18
2019-04-16T11:18:49.574Z,22.36
2019-04-16T11:19:52.771Z,23.90
2019-04-16T11:20:49.576Z,24.12
2019-04-16T11:21:49.554Z,23.90
2019-04-16T11:22:49.569Z,24.00
2019-04-16T11:23:49.546Z,23.58
2019-04-16T11:24:49.547Z,22.88
2019-04-16T11:25:49.499Z,21.95
2019-04-16T11:26:49.494Z,22.55
2019-04-16T11:27:49.506Z,22.53
2019-04-16T11:28:49.484Z,22.33
2019-04-16T11:29:49.454Z,22.83
2019-04-16T11:30:49.468Z,20.81
2019-04-16T11:31:49.440Z,21.82
2019-04-16T11:32:49.421Z,21.77
2019-04-16T11:33:49.417Z,23.62
2019-04-16T11:34:49.427Z,24.24
2019-04-16T11:35:52.765Z,23.13
2019-04-16T11:36:49.391Z,23.54
2019-04-16T11:37:49.379Z,24.48
2019-04-16T11:38:49.436Z,24.05
2019-04-16T11:39:49.360Z,24.33
2019-04-16T11:40:49.384Z,23.41
2019-04-16T11:41:49.336Z,24.02
2019-04-16T11:42:49.337Z,23.62
2019-04-16T11:43:49.330Z,23.81
2019-04-16T11:44:50.398Z,23.49
2019-04-16T11:45:49.287Z,23.29
2019-04-16T11:46:49.292Z,23.50
2019-04-16T11:47:49.281Z,22.81
2019-04-16T11:48:50.327Z,23.61
2019-04-16T11:49:49.262Z,23.61
2019-04-16T11:50:49.239Z,24.01
2019-04-16T11:51:49.232Z,24.52
2019-04-16T11:52:49.215Z,23.83
2019-04-16T11:53:49.217Z,24.52
2019-04-16T11:54:49.192Z,24.02
2019-04-16T11:55:49.183Z,23.92
2019-04-16T11:56:49.212Z,24.21
2019-04-16T11:57:49.202Z,23.29
2019-04-16T11:58:49.155Z,23.09
2019-04-16T11:59:49.166Z,23.61
2019-04-16T12:00:49.161Z,24.11
2019-04-16T12:01:49.113Z,23.75
2019-04-16T12:02:49.120Z,24.75
2019-04-16T12:03:49.092Z,24.04
2019-04-16T12:04:49.103Z,24.35
2019-04-16T12:05:49.126Z,23.91
2019-04-16T12:06:49.103Z,23.41
2019-04-16T12:07:49.095Z,23.50
2019-04-16T12:08:49.084Z,24.22
2019-04-16T12:09:49.055Z,23.94
2019-04-16T12:10:49.056Z,24.26
2019-04-16T12:11:49.046Z,24.05
2019-04-16T12:12:49.062Z,24.21
2019-04-16T12:13:49.036Z,24.18
2019-04-16T12:14:49.013Z,22.96
2019-04-16T12:15:48.972Z,23.65
2019-04-16T12:16:48.954Z,23.44
2019-04-16T12:17:49.044Z,22.92
2019-04-16T12:18:48.938Z,22.11
2019-04-16T12:19:48.992Z,22.40
2019-04-16T12:20:48.948Z,20.81
2019-04-16T12:21:48.902Z,22.42
2019-04-16T12:22:48.889Z,22.83
2019-04-16T12:23:49.047Z,22.72
2019-04-16T12:24:48.871Z,21.51
2019-04-16T12:25:48.870Z,22.32
2019-04-16T12:26:48.869Z,21.71
2019-04-16T12:27:48.844Z,22.63
2019-04-16T12:28:48.843Z,22.97
2019-04-16T12:29:48.815Z,23.38
2019-04-16T12:30:48.807Z,23.60
2019-04-16T12:31:48.799Z,23.99
2019-04-16T12:32:48.832Z,23.07
2019-04-16T12:33:48.777Z,23.05
2019-04-16T12:34:51.196Z,23.45
2019-04-16T12:35:48.771Z,23.39
2019-04-16T12:36:48.749Z,25.01
2019-04-16T12:37:48.741Z,23.49
2019-04-16T12:38:48.721Z,23.80
2019-04-16T12:39:48.716Z,23.41
2019-04-16T12:40:48.725Z,24.33
2019-04-16T12:41:48.690Z,24.44
2019-04-16T12:42:48.677Z,24.01
2019-04-16T12:43:51.104Z,24.10
2019-04-16T12:44:48.687Z,24.11
2019-04-16T12:45:48.641Z,23.90
2019-04-16T12:46:48.641Z,24.20
2019-04-16T12:47:48.667Z,23.89
2019-04-16T12:48:48.627Z,23.39
2019-04-16T12:49:48.627Z,23.50
2019-04-16T12:50:48.597Z,24.21
2019-04-16T12:51:48.632Z,23.08
2019-04-16T12:52:48.665Z,22.88